createdAt,value
2017-12-19T00:02:01.726Z,97.00
2017-12-19T00:04:29.391Z,97.00
2017-12-19T00:06:57.027Z,97.20
2017-12-19T00:09:24.692Z,97.40
2017-12-19T00:11:52.349Z,97.30
2017-12-19T00:14:19.985Z,96.50
2017-12-19T00:16:47.646Z,96.60
2017-12-19T00:19:15.278Z,97.10
2017-12-19T00:21:42.946Z,97.80
2017-12-19T00:24:10.656Z,97.90
2017-12-19T00:26:38.291Z,98.10
2017-12-19T00:29:05.954Z,97.90
2017-12-19T00:31:33.612Z,97.60
2017-12-19T00:34:01.273Z,97.90
2017-12-19T00:36:28.890Z,96.60
2017-12-19T00:38:56.763Z,97.00
2017-12-19T00:41:24.509Z,97.80
2017-12-19T00:43:54.373Z,98.10
2017-12-19T00:46:22.069Z,98.40
2017-12-19T00:48:49.707Z,98.30
2017-12-19T00:51:17.376Z,98.40
2017-12-19T00:53:45.038Z,98.30
2017-12-19T00:56:12.694Z,98.90
2017-12-19T00:58:40.376Z,98.50
2017-12-19T01:01:08.014Z,98.80
2017-12-19T01:03:35.651Z,98.60
2017-12-19T01:06:03.312Z,98.40
2017-12-19T01:08:30.947Z,98.40
2017-12-19T01:10:58.610Z,98.20
2017-12-19T01:13:26.275Z,98.10
2017-12-19T01:15:53.915Z,98.30
2017-12-19T01:18:21.578Z,98.30
2017-12-19T01:20:49.210Z,98.50
2017-12-19T01:23:16.897Z,98.60
2017-12-19T01:25:45.293Z,99.10
2017-12-19T01:28:13.013Z,99.00
2017-12-19T01:30:41.455Z,98.30
2017-12-19T01:33:10.539Z,98.30
2017-12-19T01:35:38.204Z,98.20
2017-12-19T01:38:06.634Z,98.40
2017-12-19T01:40:34.282Z,98.30
2017-12-19T01:43:01.942Z,99.00
2017-12-19T01:45:30.381Z,98.90
2017-12-19T01:47:58.035Z,98.90
2017-12-19T01:50:25.658Z,99.20
2017-12-19T01:52:53.273Z,99.10
2017-12-19T01:55:21.691Z,99.30
2017-12-19T01:57:49.313Z,99.10
2017-12-19T02:00:16.974Z,99.10
2017-12-19T02:02:44.621Z,98.90
2017-12-19T02:05:12.259Z,98.90
2017-12-19T02:07:39.923Z,98.90
2017-12-19T02:10:07.583Z,98.80
2017-12-19T02:12:35.246Z,98.70
2017-12-19T02:15:02.870Z,98.90
2017-12-19T02:17:30.485Z,98.70
2017-12-19T02:19:58.151Z,98.70
2017-12-19T02:22:25.810Z,98.70
2017-12-19T02:24:53.473Z,98.90
2017-12-19T02:27:21.115Z,99.10
2017-12-19T02:29:48.745Z,98.80
2017-12-19T02:32:16.425Z,98.70
2017-12-19T02:34:44.826Z,98.70
2017-12-19T02:37:12.481Z,99.40
2017-12-19T02:39:40.106Z,98.60
2017-12-19T02:42:07.728Z,98.80
2017-12-19T02:44:35.378Z,98.80
2017-12-19T02:47:03.769Z,99.30
2017-12-19T02:49:31.437Z,99.30
2017-12-19T02:51:59.079Z,99.30
2017-12-19T02:54:26.717Z,98.90
2017-12-19T02:56:54.372Z,99.00
2017-12-19T02:59:22.055Z,98.70
2017-12-19T03:01:49.702Z,98.90
2017-12-19T03:04:17.333Z,99.00
2017-12-19T03:06:51.482Z,99.20
2017-12-19T03:09:19.132Z,99.10
2017-12-19T03:11:46.776Z,99.30
2017-12-19T03:14:14.532Z,98.60
2017-12-19T03:16:42.146Z,98.60
2017-12-19T03:19:09.807Z,99.00
2017-12-19T03:21:37.449Z,99.10
2017-12-19T03:24:05.854Z,99.10
2017-12-19T03:26:33.510Z,99.10
2017-12-19T03:29:01.146Z,99.30
2017-12-19T03:31:28.809Z,99.60
2017-12-19T03:33:56.476Z,99.90
2017-12-19T03:36:24.108Z,99.90
2017-12-19T03:38:51.766Z,99.70
2017-12-19T03:41:19.449Z,99.70
2017-12-19T03:43:47.110Z,99.90
2017-12-19T03:46:14.750Z,99.90
2017-12-19T03:48:42.390Z,99.60
2017-12-19T03:51:10.041Z,99.60
2017-12-19T03:53:38.431Z,99.60
2017-12-19T03:56:06.094Z,99.50
2017-12-19T03:58:33.722Z,99.70
2017-12-19T04:01:01.346Z,99.70
2017-12-19T04:03:29.001Z,99.80
2017-12-19T04:05:56.634Z,99.50
2017-12-19T04:08:24.298Z,99.10
2017-12-19T04:10:52.049Z,98.90
2017-12-19T04:13:19.681Z,99.10
2017-12-19T04:15:47.332Z,99.10
2017-12-19T04:18:14.994Z,99.20
2017-12-19T04:20:42.655Z,99.00
2017-12-19T04:23:10.290Z,99.10
2017-12-19T04:25:37.929Z,99.50
2017-12-19T04:28:05.595Z,99.60
2017-12-19T04:30:33.223Z,99.90
2017-12-19T04:33:00.896Z,99.90
2017-12-19T04:35:28.529Z,99.90
2017-12-19T04:37:56.186Z,99.80
2017-12-19T04:40:23.974Z,99.70
2017-12-19T04:42:52.379Z,99.90
2017-12-19T04:45:20.066Z,99.90
2017-12-19T04:47:47.957Z,99.60
2017-12-19T04:50:16.354Z,99.60
2017-12-19T04:52:44.131Z,99.60
2017-12-19T04:55:12.715Z,99.60
2017-12-19T04:57:40.414Z,99.60
2017-12-19T05:00:08.045Z,99.80
2017-12-19T05:02:35.677Z,99.90
2017-12-19T05:05:03.350Z,99.60
2017-12-19T05:07:31.011Z,99.50
2017-12-19T05:09:58.674Z,99.50
2017-12-19T05:12:26.313Z,99.70
2017-12-19T05:14:53.976Z,99.60
2017-12-19T05:17:21.646Z,99.50
2017-12-19T05:19:50.049Z,99.60
2017-12-19T05:22:17.864Z,99.50
2017-12-19T05:24:46.272Z,99.70
2017-12-19T05:27:14.156Z,99.60
2017-12-19T05:29:41.910Z,99.80
2017-12-19T05:32:09.571Z,99.90
2017-12-19T05:34:37.238Z,99.90
2017-12-19T05:37:04.899Z,99.80
2017-12-19T05:39:32.537Z,99.90
2017-12-19T05:42:00.197Z,99.90
2017-12-19T05:44:27.827Z,99.90
2017-12-19T05:46:55.486Z,99.90
2017-12-19T05:49:23.129Z,99.90
2017-12-19T05:51:50.766Z,99.90
2017-12-19T05:54:18.502Z,99.80
2017-12-19T05:56:46.954Z,99.90
2017-12-19T05:59:14.671Z,99.90
2017-12-19T06:01:42.306Z,99.90
2017-12-19T06:04:09.963Z,99.90
2017-12-19T06:06:37.650Z,99.90
2017-12-19T06:09:05.291Z,99.90
2017-12-19T06:11:33.814Z,99.90
2017-12-19T06:14:01.447Z,99.90
2017-12-19T06:16:29.138Z,99.90
2017-12-19T06:18:56.782Z,99.90
2017-12-19T06:21:24.452Z,99.90
2017-12-19T06:23:52.875Z,99.90
2017-12-19T06:26:21.589Z,99.90
2017-12-19T06:28:49.271Z,99.90
2017-12-19T06:31:16.923Z,99.90
2017-12-19T06:33:44.569Z,99.90
2017-12-19T06:36:12.267Z,99.50
2017-12-19T06:38:40.404Z,99.30
2017-12-19T06:41:08.073Z,99.30
2017-12-19T06:43:35.798Z,99.60
2017-12-19T06:46:03.437Z,99.90
2017-12-19T06:48:31.110Z,99.90
2017-12-19T06:50:58.738Z,99.90
2017-12-19T06:53:26.403Z,99.90
2017-12-19T06:55:54.821Z,99.30
2017-12-19T06:58:22.465Z,98.60
2017-12-19T07:00:50.140Z,97.40
2017-12-19T07:03:17.774Z,96.60
2017-12-19T07:05:45.449Z,96.70
2017-12-19T07:08:13.088Z,97.00
2017-12-19T07:10:40.747Z,97.60
2017-12-19T07:13:08.408Z,98.20
2017-12-19T07:15:36.051Z,98.50
2017-12-19T07:18:04.482Z,98.80
2017-12-19T07:20:32.110Z,98.70
2017-12-19T07:22:59.749Z,98.50
2017-12-19T07:25:27.418Z,98.90
2017-12-19T07:27:55.057Z,99.00
2017-12-19T07:30:22.717Z,99.20
2017-12-19T07:32:50.347Z,99.40
2017-12-19T07:35:17.974Z,99.40
2017-12-19T07:37:45.697Z,99.60
2017-12-19T07:40:13.329Z,99.90
2017-12-19T07:42:41.756Z,99.70
2017-12-19T07:45:09.385Z,99.90
2017-12-19T07:47:37.011Z,99.80
2017-12-19T07:50:04.710Z,99.90
2017-12-19T07:52:32.335Z,99.90
2017-12-19T07:54:59.990Z,99.90
2017-12-19T07:57:27.615Z,99.90
2017-12-19T07:59:55.264Z,99.90
2017-12-19T08:02:22.918Z,99.90
2017-12-19T08:04:50.545Z,99.90
2017-12-19T08:07:18.208Z,99.90
2017-12-19T08:09:45.842Z,99.90
2017-12-19T08:12:13.517Z,99.90
2017-12-19T08:14:41.175Z,99.90
2017-12-19T08:17:08.822Z,99.90
2017-12-19T08:19:36.508Z,99.90
2017-12-19T08:22:04.138Z,99.90
2017-12-19T08:24:31.761Z,99.50
2017-12-19T08:26:59.429Z,99.30
2017-12-19T08:29:27.046Z,98.40
2017-12-19T08:31:54.709Z,98.00
2017-12-19T08:34:23.130Z,97.70
2017-12-19T08:36:50.755Z,97.80
2017-12-19T08:39:19.174Z,97.50
2017-12-19T08:41:46.811Z,97.50
2017-12-19T08:44:14.485Z,96.10
2017-12-19T08:46:42.137Z,93.50
2017-12-19T08:49:09.767Z,93.40
2017-12-19T08:51:37.431Z,93.50
2017-12-19T08:54:05.070Z,93.80
2017-12-19T08:56:32.732Z,94.80
2017-12-19T08:59:00.362Z,94.20
2017-12-19T09:01:27.989Z,93.20
2017-12-19T09:03:55.642Z,94.80
2017-12-19T09:06:23.274Z,95.10
2017-12-19T09:08:50.913Z,94.40
2017-12-19T09:11:18.541Z,93.90
2017-12-19T09:13:46.214Z,94.30
2017-12-19T09:16:13.833Z,94.80
2017-12-19T09:18:41.456Z,95.40
2017-12-19T09:21:09.891Z,93.40
2017-12-19T09:23:37.551Z,93.40
2017-12-19T09:26:05.178Z,91.90
2017-12-19T09:28:32.843Z,90.70
2017-12-19T09:31:00.470Z,90.50
2017-12-19T09:33:28.128Z,90.10
2017-12-19T09:35:55.760Z,90.50
2017-12-19T09:38:23.383Z,90.50
2017-12-19T09:40:51.077Z,89.70
2017-12-19T09:43:18.690Z,89.70
2017-12-19T09:45:46.350Z,89.40
2017-12-19T09:48:13.973Z,88.50
2017-12-19T09:50:42.364Z,88.80
2017-12-19T09:53:10.014Z,87.70
2017-12-19T09:55:37.650Z,88.30
2017-12-19T09:58:05.272Z,88.10
2017-12-19T10:00:32.935Z,89.10
2017-12-19T10:03:00.552Z,91.00
2017-12-19T10:05:28.194Z,89.70
2017-12-19T10:07:55.907Z,90.00
2017-12-19T10:10:23.526Z,89.80
2017-12-19T10:12:51.158Z,90.50
2017-12-19T10:15:19.064Z,90.80
2017-12-19T10:17:46.684Z,90.50
2017-12-19T10:20:14.347Z,90.50
2017-12-19T10:22:42.008Z,90.80
2017-12-19T10:25:10.510Z,90.50
2017-12-19T10:27:38.151Z,90.40
2017-12-19T10:30:05.795Z,91.90
2017-12-19T10:32:33.421Z,93.30
2017-12-19T10:35:01.069Z,94.00
2017-12-19T10:37:28.793Z,94.00
2017-12-19T10:39:56.382Z,92.00
2017-12-19T10:42:24.017Z,91.70
2017-12-19T10:44:51.678Z,89.30
2017-12-19T10:47:19.291Z,89.50
2017-12-19T10:49:47.682Z,90.10
2017-12-19T10:52:15.325Z,90.20
2017-12-19T10:54:42.993Z,91.60
2017-12-19T10:57:10.637Z,89.80
2017-12-19T10:59:38.293Z,90.60
2017-12-19T11:02:05.951Z,91.30
2017-12-19T11:04:33.585Z,90.40
2017-12-19T11:07:01.247Z,89.90
2017-12-19T11:09:28.881Z,91.40
2017-12-19T11:11:56.518Z,91.40
2017-12-19T11:14:24.182Z,92.00
2017-12-19T11:16:51.900Z,91.40
2017-12-19T11:19:19.570Z,90.80
2017-12-19T11:21:47.185Z,89.80
2017-12-19T11:24:14.898Z,89.70
2017-12-19T11:26:42.550Z,90.10
2017-12-19T11:29:10.201Z,90.20
2017-12-19T11:31:38.652Z,91.10
2017-12-19T11:34:06.277Z,91.00
2017-12-19T11:36:33.967Z,90.30
2017-12-19T11:39:01.650Z,89.80
2017-12-19T11:41:29.269Z,90.60
2017-12-19T11:43:58.660Z,90.30
2017-12-19T11:46:26.290Z,90.40
2017-12-19T11:48:54.694Z,90.60
2017-12-19T11:51:22.359Z,90.40
2017-12-19T11:53:50.025Z,90.70
2017-12-19T11:56:17.681Z,91.60
2017-12-19T11:58:45.318Z,92.30
2017-12-19T12:01:12.960Z,91.90
2017-12-19T12:03:40.658Z,91.40
2017-12-19T12:06:08.290Z,91.20
2017-12-19T12:08:36.710Z,91.80
2017-12-19T12:11:04.339Z,91.70
2017-12-19T12:13:31.958Z,92.00
2017-12-19T12:15:59.602Z,91.40
2017-12-19T12:18:27.994Z,92.70
2017-12-19T12:20:55.654Z,92.70
2017-12-19T12:23:23.282Z,93.10
2017-12-19T12:25:50.898Z,93.60
2017-12-19T12:28:19.328Z,92.60
2017-12-19T12:30:46.943Z,92.60
2017-12-19T12:33:14.626Z,92.10
2017-12-19T12:35:42.258Z,93.10
2017-12-19T12:38:09.898Z,93.10
2017-12-19T12:40:37.559Z,93.40
2017-12-19T12:43:05.196Z,92.70
2017-12-19T12:45:32.903Z,92.20
2017-12-19T12:48:00.520Z,92.00
2017-12-19T12:50:28.155Z,91.00
2017-12-19T12:52:55.813Z,90.70
2017-12-19T12:55:24.271Z,92.00
2017-12-19T12:57:51.929Z,91.30
2017-12-19T13:00:20.318Z,92.30
2017-12-19T13:02:47.974Z,92.30
2017-12-19T13:05:15.625Z,91.30
2017-12-19T13:07:43.245Z,91.60
2017-12-19T13:10:10.904Z,91.70
2017-12-19T13:12:38.539Z,91.60
2017-12-19T13:15:06.954Z,91.50
2017-12-19T13:17:34.616Z,91.50
2017-12-19T13:20:02.261Z,91.90
2017-12-19T13:22:29.914Z,91.60
2017-12-19T13:24:57.558Z,92.50
2017-12-19T13:27:25.194Z,91.70
2017-12-19T13:29:52.929Z,92.50
2017-12-19T13:32:20.570Z,93.00
2017-12-19T13:34:48.228Z,93.10
2017-12-19T13:37:15.840Z,93.80
2017-12-19T13:39:43.454Z,93.90
2017-12-19T13:42:11.114Z,94.30
2017-12-19T13:44:38.779Z,94.40
2017-12-19T13:47:06.433Z,94.90
2017-12-19T13:49:34.054Z,95.90
2017-12-19T13:52:02.438Z,96.70
2017-12-19T13:54:30.092Z,96.70
2017-12-19T13:56:57.712Z,97.00
2017-12-19T13:59:26.270Z,98.20
2017-12-19T14:01:53.899Z,98.20
2017-12-19T14:04:21.568Z,98.40
2017-12-19T14:06:49.221Z,98.80
2017-12-19T14:09:17.657Z,99.90
2017-12-19T14:11:45.323Z,99.90
2017-12-19T14:14:13.735Z,99.90
2017-12-19T14:16:41.396Z,99.90
2017-12-19T14:19:09.053Z,99.90
2017-12-19T14:21:37.517Z,99.90
2017-12-19T14:24:05.210Z,99.90
2017-12-19T14:26:32.894Z,99.90
2017-12-19T14:29:00.525Z,99.90
2017-12-19T14:31:28.246Z,99.90
2017-12-19T14:33:56.103Z,99.90
2017-12-19T14:36:23.763Z,99.90
2017-12-19T14:38:51.378Z,99.90
2017-12-19T14:41:18.998Z,99.90
2017-12-19T14:43:46.703Z,99.90
2017-12-19T14:46:14.833Z,99.90
2017-12-19T14:48:42.741Z,99.90
2017-12-19T14:51:10.366Z,99.90
2017-12-19T14:53:38.066Z,99.90
2017-12-19T14:56:05.937Z,99.90
2017-12-19T14:58:33.618Z,99.90
2017-12-19T15:01:01.279Z,99.90
2017-12-19T15:03:28.922Z,99.90
2017-12-19T15:05:56.602Z,99.90
2017-12-19T15:08:25.187Z,99.90
2017-12-19T15:10:52.816Z,99.90
2017-12-19T15:13:20.478Z,99.90
2017-12-19T15:15:51.762Z,99.90
2017-12-19T15:18:19.395Z,99.90
2017-12-19T15:20:47.202Z,99.90
2017-12-19T15:23:14.841Z,99.90
2017-12-19T15:25:42.502Z,99.90
2017-12-19T15:28:10.264Z,99.90
2017-12-19T15:30:38.670Z,99.90
2017-12-19T15:33:06.357Z,99.90
2017-12-19T15:35:34.006Z,99.90
2017-12-19T15:38:01.661Z,99.90
2017-12-19T15:40:29.286Z,99.90
2017-12-19T15:42:57.075Z,99.90
2017-12-19T15:45:24.726Z,99.90
2017-12-19T15:47:52.891Z,99.90
2017-12-19T15:50:20.550Z,99.90
2017-12-19T15:52:48.929Z,99.90
2017-12-19T15:55:17.123Z,99.90
2017-12-19T15:57:44.842Z,99.90
2017-12-19T16:00:12.455Z,99.90
2017-12-19T16:02:40.114Z,99.90
2017-12-19T16:05:07.957Z,99.90
2017-12-19T16:07:37.256Z,99.90
2017-12-19T16:10:04.916Z,99.90
2017-12-19T16:12:34.019Z,99.90
2017-12-19T16:15:05.011Z,99.90
2017-12-19T16:17:34.579Z,99.90
2017-12-19T16:22:38.710Z,99.90
2017-12-19T16:25:06.370Z,99.90
2017-12-19T16:27:49.244Z,99.90
2017-12-19T16:30:18.283Z,99.90
2017-12-19T17:15:07.154Z,99.90
2017-12-19T17:17:37.184Z,99.90
2017-12-19T17:20:05.808Z,99.90
2017-12-19T17:22:33.698Z,99.90
2017-12-19T17:25:01.910Z,99.90
2017-12-19T17:27:29.575Z,99.90
2017-12-19T17:29:57.212Z,99.90
2017-12-19T17:32:24.837Z,99.90
2017-12-19T17:34:52.506Z,99.90
2017-12-19T17:37:20.127Z,99.90
2017-12-19T17:39:48.710Z,99.90
2017-12-19T17:42:16.382Z,99.90
2017-12-19T17:44:44.015Z,99.90
2017-12-19T17:47:11.667Z,99.90
2017-12-19T17:49:39.291Z,99.90
2017-12-19T17:52:07.034Z,99.90
2017-12-19T17:54:35.026Z,99.90
2017-12-19T17:57:02.662Z,99.90
2017-12-19T17:59:30.324Z,99.90
2017-12-19T18:01:58.722Z,99.90
2017-12-19T18:04:28.250Z,99.90
2017-12-19T18:06:56.096Z,99.90
2017-12-19T18:09:23.838Z,99.90
2017-12-19T18:11:51.502Z,99.90
2017-12-19T18:14:19.238Z,99.90
2017-12-19T18:16:47.049Z,99.90
2017-12-19T18:19:14.665Z,99.90
2017-12-19T18:21:43.050Z,99.90
2017-12-19T18:24:10.703Z,99.90
2017-12-19T18:26:38.337Z,99.90
2017-12-19T18:29:06.006Z,99.90
2017-12-19T18:31:33.666Z,99.90
2017-12-19T18:34:01.294Z,99.90
2017-12-19T18:36:29.570Z,99.90
2017-12-19T18:38:57.546Z,99.90
2017-12-19T18:41:29.014Z,99.90
2017-12-19T18:43:57.624Z,99.90
2017-12-19T18:46:25.257Z,99.90
2017-12-19T18:48:52.921Z,99.90
2017-12-19T18:51:20.655Z,99.90
2017-12-19T18:53:48.344Z,99.90
2017-12-19T18:56:16.025Z,99.90
2017-12-19T18:58:43.726Z,99.90
2017-12-19T19:01:11.387Z,99.90
2017-12-19T19:03:39.017Z,99.90
2017-12-19T19:06:06.746Z,99.90
2017-12-19T19:08:34.390Z,99.90
2017-12-19T19:11:02.035Z,99.90
2017-12-19T19:13:30.125Z,99.90
2017-12-19T19:15:57.947Z,99.90
2017-12-19T19:18:25.603Z,99.90
2017-12-19T19:20:53.220Z,99.90
2017-12-19T19:23:20.913Z,99.90
2017-12-19T19:25:48.571Z,99.90
2017-12-19T19:28:16.209Z,99.90
2017-12-19T19:30:44.099Z,99.90
2017-12-19T19:33:11.740Z,99.90
2017-12-19T19:35:39.406Z,99.90
2017-12-19T19:38:07.190Z,99.90
2017-12-19T19:40:34.833Z,99.90
2017-12-19T19:43:02.478Z,99.90
2017-12-19T19:45:30.112Z,99.90
2017-12-19T19:47:57.820Z,99.90
2017-12-19T19:50:26.258Z,99.90
2017-12-19T19:52:53.943Z,99.90
2017-12-19T19:55:21.603Z,99.90
2017-12-19T19:57:49.240Z,99.90
2017-12-19T20:00:18.346Z,99.90
2017-12-19T20:02:46.015Z,99.90
2017-12-19T20:05:13.782Z,99.90
2017-12-19T20:07:42.136Z,99.90
2017-12-19T20:10:10.601Z,99.90
2017-12-19T20:12:38.388Z,99.90
2017-12-19T20:15:06.899Z,99.90
2017-12-19T20:17:34.629Z,99.90
2017-12-19T20:20:02.334Z,99.90
2017-12-19T20:22:30.014Z,99.90
2017-12-19T20:24:57.645Z,99.90
2017-12-19T20:27:26.287Z,99.90
2017-12-19T20:29:55.208Z,99.90
2017-12-19T20:32:24.081Z,99.90
2017-12-19T20:34:51.821Z,99.90
2017-12-19T20:37:20.218Z,99.90
2017-12-19T20:39:47.923Z,99.90
2017-12-19T20:42:16.647Z,99.90
2017-12-19T20:44:44.303Z,99.90
2017-12-19T20:47:13.663Z,99.90
2017-12-19T20:49:41.295Z,99.90
2017-12-19T20:52:10.026Z,99.90
2017-12-19T20:54:37.844Z,99.90
2017-12-19T20:57:05.646Z,99.90
2017-12-19T20:59:34.053Z,99.90
2017-12-19T21:02:01.675Z,99.90
2017-12-19T21:04:29.343Z,99.90
2017-12-19T21:06:57.102Z,99.90
2017-12-19T21:09:24.794Z,99.90
2017-12-19T21:11:52.423Z,99.90
2017-12-19T21:14:20.042Z,99.90
2017-12-19T21:16:47.742Z,99.90
2017-12-19T21:19:15.363Z,99.90
2017-12-19T21:21:43.018Z,99.90
2017-12-19T21:24:11.753Z,99.90
2017-12-19T21:26:40.761Z,99.90
2017-12-19T21:29:08.604Z,99.90
2017-12-19T21:31:38.136Z,99.90
2017-12-19T21:34:07.262Z,99.90
2017-12-19T21:36:34.931Z,99.90
2017-12-19T21:39:02.617Z,99.90
2017-12-19T21:41:31.047Z,99.90
2017-12-19T21:43:58.774Z,99.90
2017-12-19T21:46:26.632Z,99.90
2017-12-19T21:48:54.262Z,99.90
2017-12-19T21:51:22.087Z,99.90
2017-12-19T21:53:49.780Z,99.90
2017-12-19T21:56:17.412Z,99.90
2017-12-19T21:58:45.062Z,99.90
2017-12-19T22:01:12.709Z,99.90
2017-12-19T22:03:40.346Z,99.90
2017-12-19T22:06:08.100Z,99.90
2017-12-19T22:08:35.713Z,99.90
2017-12-19T22:11:03.374Z,99.90
2017-12-19T22:13:31.004Z,99.90
2017-12-19T22:15:59.396Z,99.90
2017-12-19T22:18:27.221Z,99.90
2017-12-19T22:20:54.850Z,99.90
2017-12-19T22:23:23.269Z,99.90
2017-12-19T22:25:50.890Z,99.90
2017-12-19T22:28:18.553Z,99.90
2017-12-19T22:30:46.220Z,99.90
2017-12-19T22:33:13.854Z,99.90
2017-12-19T22:35:41.502Z,99.90
2017-12-19T22:38:09.178Z,99.90
2017-12-19T22:40:36.978Z,99.90
2017-12-19T22:43:04.638Z,99.90
2017-12-19T22:45:32.262Z,99.90
2017-12-19T22:47:59.913Z,99.90
2017-12-19T22:50:27.693Z,99.90
2017-12-19T22:52:55.350Z,99.90
2017-12-19T22:55:22.970Z,99.90
2017-12-19T22:57:50.640Z,99.90
2017-12-19T23:00:18.294Z,99.90
2017-12-19T23:02:46.028Z,99.90
2017-12-19T23:05:14.570Z,99.90
2017-12-19T23:07:42.205Z,99.90
2017-12-19T23:50:50.395Z,99.90
2017-12-19T23:53:18.030Z,99.90
2017-12-19T23:55:45.690Z,99.90
2017-12-19T23:58:13.314Z,99.90
